sensor_id;sensor_type;location;lat;lon;timestamp;temperature;humidity
39079;DHT22;24829;49.208;12.080;2022-10-20T00:01:13;8.10;99.90
39079;DHT22;24829;49.208;12.080;2022-10-20T00:03:38;8.10;99.90
39079;DHT22;24829;49.208;12.080;2022-10-20T00:06:20;8.10;99.90
39079;DHT22;24829;49.208;12.080;2022-10-20T00:08:46;8.10;99.90
39079;DHT22;24829;49.208;12.080;2022-10-20T00:11:14;8.10;99.90
39079;DHT22;24829;49.208;12.080;2022-10-20T00:13:41;8.00;99.90
39079;DHT22;24829;49.208;12.080;2022-10-20T00:16:08;8.00;99.90
39079;DHT22;24829;49.208;12.080;2022-10-20T00:18:33;8.00;99.90
39079;DHT22;24829;49.208;12.080;2022-10-20T00:20:59;8.00;99.90
39079;DHT22;24829;49.208;12.080;2022-10-20T00:23:28;8.00;99.90
39079;DHT22;24829;49.208;12.080;2022-10-20T00:26:21;8.00;99.90
39079;DHT22;24829;49.208;12.080;2022-10-20T00:28:48;8.00;99.90
39079;DHT22;24829;49.208;12.080;2022-10-20T00:31:14;8.00;99.90
39079;DHT22;24829;49.208;12.080;2022-10-20T00:33:40;8.00;99.90
39079;DHT22;24829;49.208;12.080;2022-10-20T00:36:08;8.00;99.90
39079;DHT22;24829;49.208;12.080;2022-10-20T00:38:34;8.00;99.90
39079;DHT22;24829;49.208;12.080;2022-10-20T00:41:00;7.90;99.90
39079;DHT22;24829;49.208;12.080;2022-10-20T00:46:41;7.70;99.90
39079;DHT22;24829;49.208;12.080;2022-10-20T00:49:20;7.70;99.90
39079;DHT22;24829;49.208;12.080;2022-10-20T00:51:48;7.70;99.90
39079;DHT22;24829;49.208;12.080;2022-10-20T00:54:19;7.60;99.90
39079;DHT22;24829;49.208;12.080;2022-10-20T00:56:47;7.60;99.90
39079;DHT22;24829;49.208;12.080;2022-10-20T00:59:16;7.60;99.90
39079;DHT22;24829;49.208;12.080;2022-10-20T01:01:43;7.60;99.90
39079;DHT22;24829;49.208;12.080;2022-10-20T01:04:09;7.60;99.90
39079;DHT22;24829;49.208;12.080;2022-10-20T01:06:35;7.50;99.90
39079;DHT22;24829;49.208;12.080;2022-10-20T01:09:00;7.50;99.90
39079;DHT22;24829;49.208;12.080;2022-10-20T01:11:42;7.50;99.90
39079;DHT22;24829;49.208;12.080;2022-10-20T01:14:26;7.60;99.90
39079;DHT22;24829;49.208;12.080;2022-10-20T01:20:22;7.60;99.90
39079;DHT22;24829;49.208;12.080;2022-10-20T01:23:12;7.50;99.90
39079;DHT22;24829;49.208;12.080;2022-10-20T01:31:40;7.50;99.90
39079;DHT22;24829;49.208;12.080;2022-10-20T01:34:34;7.50;99.90
39079;DHT22;24829;49.208;12.080;2022-10-20T01:37:24;7.50;99.90
39079;DHT22;24829;49.208;12.080;2022-10-20T01:40:03;7.50;99.90
39079;DHT22;24829;49.208;12.080;2022-10-20T01:42:30;7.50;99.90
39079;DHT22;24829;49.208;12.080;2022-10-20T01:44:59;7.40;99.90
39079;DHT22;24829;49.208;12.080;2022-10-20T01:47:28;7.40;99.90
39079;DHT22;24829;49.208;12.080;2022-10-20T01:49:56;7.40;99.90
39079;DHT22;24829;49.208;12.080;2022-10-20T01:52:23;7.40;99.90
39079;DHT22;24829;49.208;12.080;2022-10-20T01:54:49;7.40;99.90
39079;DHT22;24829;49.208;12.080;2022-10-20T01:57:46;7.40;99.90
39079;DHT22;24829;49.208;12.080;2022-10-20T02:00:16;7.40;99.90
39079;DHT22;24829;49.208;12.080;2022-10-20T02:05:17;7.40;99.90
39079;DHT22;24829;49.208;12.080;2022-10-20T02:07:47;7.40;99.90
39079;DHT22;24829;49.208;12.080;2022-10-20T02:10:18;7.40;99.90
39079;DHT22;24829;49.208;12.080;2022-10-20T02:12:48;7.40;99.90
39079;DHT22;24829;49.208;12.080;2022-10-20T02:15:18;7.40;99.90
39079;DHT22;24829;49.208;12.080;2022-10-20T02:17:46;7.40;99.90
39079;DHT22;24829;49.208;12.080;2022-10-20T02:20:13;7.40;99.90
39079;DHT22;24829;49.208;12.080;2022-10-20T02:22:40;7.30;99.90
39079;DHT22;24829;49.208;12.080;2022-10-20T02:25:09;7.30;99.90
39079;DHT22;24829;49.208;12.080;2022-10-20T02:27:36;7.30;99.90
39079;DHT22;24829;49.208;12.080;2022-10-20T02:30:15;7.30;99.90
39079;DHT22;24829;49.208;12.080;2022-10-20T02:32:43;7.30;99.90
39079;DHT22;24829;49.208;12.080;2022-10-20T02:35:16;7.40;99.90
39079;DHT22;24829;49.208;12.080;2022-10-20T02:37:43;7.40;99.90
39079;DHT22;24829;49.208;12.080;2022-10-20T02:40:08;7.40;99.90
39079;DHT22;24829;49.208;12.080;2022-10-20T02:42:34;7.40;99.90
39079;DHT22;24829;49.208;12.080;2022-10-20T02:45:00;7.30;99.90
39079;DHT22;24829;49.208;12.080;2022-10-20T02:47:26;7.30;99.90
39079;DHT22;24829;49.208;12.080;2022-10-20T02:49:51;7.30;99.90
39079;DHT22;24829;49.208;12.080;2022-10-20T02:52:17;7.30;99.90
39079;DHT22;24829;49.208;12.080;2022-10-20T02:54:43;7.30;99.90
39079;DHT22;24829;49.208;12.080;2022-10-20T02:57:08;7.20;99.90
39079;DHT22;24829;49.208;12.080;2022-10-20T02:59:34;7.20;99.90
39079;DHT22;24829;49.208;12.080;2022-10-20T03:01:59;7.20;99.90
39079;DHT22;24829;49.208;12.080;2022-10-20T03:04:25;7.10;99.90
39079;DHT22;24829;49.208;12.080;2022-10-20T03:06:50;7.20;99.90
39079;DHT22;24829;49.208;12.080;2022-10-20T03:09:16;7.20;99.90
39079;DHT22;24829;49.208;12.080;2022-10-20T03:11:41;7.20;99.90
39079;DHT22;24829;49.208;12.080;2022-10-20T03:14:07;7.30;99.90
39079;DHT22;24829;49.208;12.080;2022-10-20T03:16:33;7.20;99.90
39079;DHT22;24829;49.208;12.080;2022-10-20T03:18:59;7.30;99.90
39079;DHT22;24829;49.208;12.080;2022-10-20T03:21:24;7.30;99.90
39079;DHT22;24829;49.208;12.080;2022-10-20T03:23:50;7.30;99.90
39079;DHT22;24829;49.208;12.080;2022-10-20T03:26:15;7.10;99.90
39079;DHT22;24829;49.208;12.080;2022-10-20T03:28:41;7.10;99.90
39079;DHT22;24829;49.208;12.080;2022-10-20T03:31:07;7.10;99.90
39079;DHT22;24829;49.208;12.080;2022-10-20T03:33:32;7.00;99.90
39079;DHT22;24829;49.208;12.080;2022-10-20T03:35:58;7.00;99.90
39079;DHT22;24829;49.208;12.080;2022-10-20T03:38:24;6.90;99.90
39079;DHT22;24829;49.208;12.080;2022-10-20T03:40:50;6.70;99.90
39079;DHT22;24829;49.208;12.080;2022-10-20T03:43:15;6.70;99.90
39079;DHT22;24829;49.208;12.080;2022-10-20T03:45:42;6.60;99.90
39079;DHT22;24829;49.208;12.080;2022-10-20T03:48:07;6.50;99.90
39079;DHT22;24829;49.208;12.080;2022-10-20T03:50:33;6.50;99.90
39079;DHT22;24829;49.208;12.080;2022-10-20T03:52:58;6.40;99.90
39079;DHT22;24829;49.208;12.080;2022-10-20T03:55:24;6.40;99.90
39079;DHT22;24829;49.208;12.080;2022-10-20T03:57:50;6.50;99.90
39079;DHT22;24829;49.208;12.080;2022-10-20T04:00:15;6.50;99.90
39079;DHT22;24829;49.208;12.080;2022-10-20T04:02:43;6.50;99.90
39079;DHT22;24829;49.208;12.080;2022-10-20T04:05:14;6.60;99.90
39079;DHT22;24829;49.208;12.080;2022-10-20T04:07:40;6.50;99.90
39079;DHT22;24829;49.208;12.080;2022-10-20T04:10:06;6.50;99.90
39079;DHT22;24829;49.208;12.080;2022-10-20T04:12:32;6.40;99.90
39079;DHT22;24829;49.208;12.080;2022-10-20T04:14:57;6.40;99.90
39079;DHT22;24829;49.208;12.080;2022-10-20T04:17:23;6.40;99.90
39079;DHT22;24829;49.208;12.080;2022-10-20T04:19:48;6.40;99.90
39079;DHT22;24829;49.208;12.080;2022-10-20T04:22:14;6.30;99.90
39079;DHT22;24829;49.208;12.080;2022-10-20T04:24:40;6.30;99.90
39079;DHT22;24829;49.208;12.080;2022-10-20T04:27:05;6.30;99.90
39079;DHT22;24829;49.208;12.080;2022-10-20T04:29:31;6.30;99.90
39079;DHT22;24829;49.208;12.080;2022-10-20T04:31:57;6.30;99.90
39079;DHT22;24829;49.208;12.080;2022-10-20T04:34:22;6.30;99.90
39079;DHT22;24829;49.208;12.080;2022-10-20T04:36:48;6.30;99.90
39079;DHT22;24829;49.208;12.080;2022-10-20T04:39:14;6.30;99.90
39079;DHT22;24829;49.208;12.080;2022-10-20T04:41:39;6.20;99.90
39079;DHT22;24829;49.208;12.080;2022-10-20T04:44:05;6.10;99.90
39079;DHT22;24829;49.208;12.080;2022-10-20T04:46:31;6.20;99.90
39079;DHT22;24829;49.208;12.080;2022-10-20T04:48:56;6.10;99.90
39079;DHT22;24829;49.208;12.080;2022-10-20T04:51:22;6.00;99.90
39079;DHT22;24829;49.208;12.080;2022-10-20T04:53:48;5.90;99.90
39079;DHT22;24829;49.208;12.080;2022-10-20T04:56:16;5.90;99.90
39079;DHT22;24829;49.208;12.080;2022-10-20T04:58:48;6.00;99.90
39079;DHT22;24829;49.208;12.080;2022-10-20T05:01:14;6.10;99.90
39079;DHT22;24829;49.208;12.080;2022-10-20T05:03:40;6.20;99.90
39079;DHT22;24829;49.208;12.080;2022-10-20T05:08:35;6.20;99.90
39079;DHT22;24829;49.208;12.080;2022-10-20T05:11:01;6.20;99.90
39079;DHT22;24829;49.208;12.080;2022-10-20T05:13:27;6.20;99.90
39079;DHT22;24829;49.208;12.080;2022-10-20T05:15:53;6.30;99.90
39079;DHT22;24829;49.208;12.080;2022-10-20T05:18:19;6.30;99.90
39079;DHT22;24829;49.208;12.080;2022-10-20T05:20:44;6.30;99.90
39079;DHT22;24829;49.208;12.080;2022-10-20T05:23:10;6.40;99.90
39079;DHT22;24829;49.208;12.080;2022-10-20T05:25:36;6.40;99.90
39079;DHT22;24829;49.208;12.080;2022-10-20T05:28:03;6.30;99.90
39079;DHT22;24829;49.208;12.080;2022-10-20T05:30:29;6.30;99.90
39079;DHT22;24829;49.208;12.080;2022-10-20T05:32:54;6.30;99.90
39079;DHT22;24829;49.208;12.080;2022-10-20T05:35:20;6.20;99.90
39079;DHT22;24829;49.208;12.080;2022-10-20T05:37:45;6.20;99.90
39079;DHT22;24829;49.208;12.080;2022-10-20T05:40:11;6.10;99.90
39079;DHT22;24829;49.208;12.080;2022-10-20T05:42:37;6.10;99.90
39079;DHT22;24829;49.208;12.080;2022-10-20T05:45:04;6.00;99.90
39079;DHT22;24829;49.208;12.080;2022-10-20T05:47:29;6.00;99.90
39079;DHT22;24829;49.208;12.080;2022-10-20T05:49:55;6.00;99.90
39079;DHT22;24829;49.208;12.080;2022-10-20T05:52:20;5.90;99.90
39079;DHT22;24829;49.208;12.080;2022-10-20T05:54:46;5.90;99.90
39079;DHT22;24829;49.208;12.080;2022-10-20T05:57:12;5.90;99.90
39079;DHT22;24829;49.208;12.080;2022-10-20T05:59:37;6.00;99.90
39079;DHT22;24829;49.208;12.080;2022-10-20T06:02:03;6.00;99.90
39079;DHT22;24829;49.208;12.080;2022-10-20T06:04:30;6.10;99.90
39079;DHT22;24829;49.208;12.080;2022-10-20T06:06:56;6.10;99.90
39079;DHT22;24829;49.208;12.080;2022-10-20T06:09:22;6.20;99.90
39079;DHT22;24829;49.208;12.080;2022-10-20T06:11:49;6.20;99.90
39079;DHT22;24829;49.208;12.080;2022-10-20T06:14:15;6.30;99.90
39079;DHT22;24829;49.208;12.080;2022-10-20T06:16:42;6.20;99.90
39079;DHT22;24829;49.208;12.080;2022-10-20T06:19:08;6.20;99.90
39079;DHT22;24829;49.208;12.080;2022-10-20T06:21:34;6.10;99.90
39079;DHT22;24829;49.208;12.080;2022-10-20T06:24:01;6.10;99.90
39079;DHT22;24829;49.208;12.080;2022-10-20T06:26:31;6.10;99.90
39079;DHT22;24829;49.208;12.080;2022-10-20T06:29:05;6.10;99.90
39079;DHT22;24829;49.208;12.080;2022-10-20T06:31:33;6.00;99.90
39079;DHT22;24829;49.208;12.080;2022-10-20T06:33:59;6.00;99.90
39079;DHT22;24829;49.208;12.080;2022-10-20T06:36:26;6.00;99.90
39079;DHT22;24829;49.208;12.080;2022-10-20T06:38:56;6.10;99.90
39079;DHT22;24829;49.208;12.080;2022-10-20T06:41:23;6.10;99.90
39079;DHT22;24829;49.208;12.080;2022-10-20T06:43:49;6.20;99.90
39079;DHT22;24829;49.208;12.080;2022-10-20T06:46:19;6.20;99.90
39079;DHT22;24829;49.208;12.080;2022-10-20T06:48:45;6.30;99.90
39079;DHT22;24829;49.208;12.080;2022-10-20T06:51:12;6.40;99.90
39079;DHT22;24829;49.208;12.080;2022-10-20T06:53:39;6.40;99.90
39079;DHT22;24829;49.208;12.080;2022-10-20T06:56:07;6.40;99.90
39079;DHT22;24829;49.208;12.080;2022-10-20T06:58:34;6.50;99.90
39079;DHT22;24829;49.208;12.080;2022-10-20T07:01:02;6.60;99.90
39079;DHT22;24829;49.208;12.080;2022-10-20T07:03:28;6.70;99.90
39079;DHT22;24829;49.208;12.080;2022-10-20T07:05:55;6.80;99.90
39079;DHT22;24829;49.208;12.080;2022-10-20T07:08:21;6.90;99.90
39079;DHT22;24829;49.208;12.080;2022-10-20T07:10:47;6.90;99.90
39079;DHT22;24829;49.208;12.080;2022-10-20T07:13:12;7.00;99.90
39079;DHT22;24829;49.208;12.080;2022-10-20T07:15:38;7.10;99.90
39079;DHT22;24829;49.208;12.080;2022-10-20T07:18:03;7.10;99.90
39079;DHT22;24829;49.208;12.080;2022-10-20T07:20:29;7.10;99.90
39079;DHT22;24829;49.208;12.080;2022-10-20T07:22:54;7.20;99.90
39079;DHT22;24829;49.208;12.080;2022-10-20T07:25:21;7.20;99.90
39079;DHT22;24829;49.208;12.080;2022-10-20T07:27:47;7.30;99.90
39079;DHT22;24829;49.208;12.080;2022-10-20T07:30:12;7.30;99.90
39079;DHT22;24829;49.208;12.080;2022-10-20T07:32:38;7.30;99.90
39079;DHT22;24829;49.208;12.080;2022-10-20T07:35:04;7.40;99.90
39079;DHT22;24829;49.208;12.080;2022-10-20T07:37:30;7.40;99.90
39079;DHT22;24829;49.208;12.080;2022-10-20T07:39:55;7.40;99.90
39079;DHT22;24829;49.208;12.080;2022-10-20T07:42:21;7.50;99.90
39079;DHT22;24829;49.208;12.080;2022-10-20T07:44:46;7.60;99.90
39079;DHT22;24829;49.208;12.080;2022-10-20T07:47:12;7.60;99.90
39079;DHT22;24829;49.208;12.080;2022-10-20T07:49:37;7.70;99.90
39079;DHT22;24829;49.208;12.080;2022-10-20T07:52:03;7.80;99.90
39079;DHT22;24829;49.208;12.080;2022-10-20T07:54:29;7.80;99.90
39079;DHT22;24829;49.208;12.080;2022-10-20T07:56:54;7.80;99.90
39079;DHT22;24829;49.208;12.080;2022-10-20T07:59:20;7.90;99.90
39079;DHT22;24829;49.208;12.080;2022-10-20T08:01:46;7.90;99.90
39079;DHT22;24829;49.208;12.080;2022-10-20T08:04:12;8.00;99.90
39079;DHT22;24829;49.208;12.080;2022-10-20T08:06:37;8.00;99.90
39079;DHT22;24829;49.208;12.080;2022-10-20T08:09:03;8.10;99.90
39079;DHT22;24829;49.208;12.080;2022-10-20T08:11:29;8.10;99.90
39079;DHT22;24829;49.208;12.080;2022-10-20T08:13:54;8.10;99.90
39079;DHT22;24829;49.208;12.080;2022-10-20T08:16:20;8.20;99.90
39079;DHT22;24829;49.208;12.080;2022-10-20T08:18:46;8.20;99.90
39079;DHT22;24829;49.208;12.080;2022-10-20T08:21:19;8.30;99.90
39079;DHT22;24829;49.208;12.080;2022-10-20T08:23:47;8.30;99.90
39079;DHT22;24829;49.208;12.080;2022-10-20T08:26:20;8.30;99.90
39079;DHT22;24829;49.208;12.080;2022-10-20T08:28:47;8.40;99.90
39079;DHT22;24829;49.208;12.080;2022-10-20T08:31:13;8.40;99.90
39079;DHT22;24829;49.208;12.080;2022-10-20T08:33:38;8.50;99.90
39079;DHT22;24829;49.208;12.080;2022-10-20T08:36:08;8.50;99.90
39079;DHT22;24829;49.208;12.080;2022-10-20T08:38:36;8.60;99.90
39079;DHT22;24829;49.208;12.080;2022-10-20T08:41:04;8.60;99.90
39079;DHT22;24829;49.208;12.080;2022-10-20T08:43:39;8.60;99.90
39079;DHT22;24829;49.208;12.080;2022-10-20T08:46:05;8.60;99.90
39079;DHT22;24829;49.208;12.080;2022-10-20T08:48:32;8.60;99.90
39079;DHT22;24829;49.208;12.080;2022-10-20T08:50:59;8.70;99.90
39079;DHT22;24829;49.208;12.080;2022-10-20T08:53:25;8.80;99.90
39079;DHT22;24829;49.208;12.080;2022-10-20T08:55:53;8.90;99.90
39079;DHT22;24829;49.208;12.080;2022-10-20T08:58:21;9.00;99.90
39079;DHT22;24829;49.208;12.080;2022-10-20T09:00:54;9.00;99.90
39079;DHT22;24829;49.208;12.080;2022-10-20T09:03:21;9.10;99.90
39079;DHT22;24829;49.208;12.080;2022-10-20T09:06:13;9.10;99.90
39079;DHT22;24829;49.208;12.080;2022-10-20T09:08:39;9.10;99.90
39079;DHT22;24829;49.208;12.080;2022-10-20T09:11:06;9.20;99.90
39079;DHT22;24829;49.208;12.080;2022-10-20T09:13:33;9.30;99.90
39079;DHT22;24829;49.208;12.080;2022-10-20T09:16:10;9.40;99.90
39079;DHT22;24829;49.208;12.080;2022-10-20T09:18:37;9.30;99.90
39079;DHT22;24829;49.208;12.080;2022-10-20T09:21:16;9.40;99.90
39079;DHT22;24829;49.208;12.080;2022-10-20T09:23:45;9.50;99.90
39079;DHT22;24829;49.208;12.080;2022-10-20T09:26:16;9.50;99.90
39079;DHT22;24829;49.208;12.080;2022-10-20T09:28:41;9.50;99.90
39079;DHT22;24829;49.208;12.080;2022-10-20T09:33:46;9.70;99.90
39079;DHT22;24829;49.208;12.080;2022-10-20T09:36:15;9.80;99.90
39079;DHT22;24829;49.208;12.080;2022-10-20T09:38:43;9.80;99.90
39079;DHT22;24829;49.208;12.080;2022-10-20T09:41:15;9.90;99.90
39079;DHT22;24829;49.208;12.080;2022-10-20T09:46:20;10.00;99.90
39079;DHT22;24829;49.208;12.080;2022-10-20T09:48:48;10.10;99.90
39079;DHT22;24829;49.208;12.080;2022-10-20T09:51:20;10.20;99.90
39079;DHT22;24829;49.208;12.080;2022-10-20T09:53:59;10.30;99.90
39079;DHT22;24829;49.208;12.080;2022-10-20T09:56:30;10.30;99.90
39079;DHT22;24829;49.208;12.080;2022-10-20T09:58:58;10.40;99.90
39079;DHT22;24829;49.208;12.080;2022-10-20T10:01:25;10.40;99.90
39079;DHT22;24829;49.208;12.080;2022-10-20T10:03:52;10.50;99.90
39079;DHT22;24829;49.208;12.080;2022-10-20T10:08:52;10.60;99.90
39079;DHT22;24829;49.208;12.080;2022-10-20T10:11:20;10.70;99.90
39079;DHT22;24829;49.208;12.080;2022-10-20T10:13:49;10.70;99.90
39079;DHT22;24829;49.208;12.080;2022-10-20T10:16:18;10.80;99.90
39079;DHT22;24829;49.208;12.080;2022-10-20T10:21:25;11.00;99.90
39079;DHT22;24829;49.208;12.080;2022-10-20T10:23:56;11.00;99.90
39079;DHT22;24829;49.208;12.080;2022-10-20T10:26:43;11.10;99.90
39079;DHT22;24829;49.208;12.080;2022-10-20T10:29:18;11.10;99.90
39079;DHT22;24829;49.208;12.080;2022-10-20T10:32:26;11.20;99.90
39079;DHT22;24829;49.208;12.080;2022-10-20T10:35:18;11.30;99.90
39079;DHT22;24829;49.208;12.080;2022-10-20T10:37:46;11.40;99.90
39079;DHT22;24829;49.208;12.080;2022-10-20T10:40:18;11.40;99.90
39079;DHT22;24829;49.208;12.080;2022-10-20T10:43:18;11.40;99.90
39079;DHT22;24829;49.208;12.080;2022-10-20T10:45:59;11.50;99.90
39079;DHT22;24829;49.208;12.080;2022-10-20T10:48:57;11.60;99.90
39079;DHT22;24829;49.208;12.080;2022-10-20T10:51:50;11.80;99.90
39079;DHT22;24829;49.208;12.080;2022-10-20T10:57:10;11.90;99.90
39079;DHT22;24829;49.208;12.080;2022-10-20T10:59:40;11.90;99.90
39079;DHT22;24829;49.208;12.080;2022-10-20T11:13:26;12.10;99.90
39079;DHT22;24829;49.208;12.080;2022-10-20T11:18:36;12.10;99.90
39079;DHT22;24829;49.208;12.080;2022-10-20T11:24:04;12.20;99.90
39079;DHT22;24829;49.208;12.080;2022-10-20T11:26:36;12.30;99.90
39079;DHT22;24829;49.208;12.080;2022-10-20T11:29:11;12.40;99.90
39079;DHT22;24829;49.208;12.080;2022-10-20T11:31:52;12.40;99.90
39079;DHT22;24829;49.208;12.080;2022-10-20T11:34:31;12.40;99.90
39079;DHT22;24829;49.208;12.080;2022-10-20T11:37:25;12.50;99.90
39079;DHT22;24829;49.208;12.080;2022-10-20T11:59:07;13.10;99.90
39079;DHT22;24829;49.208;12.080;2022-10-20T12:01:42;13.10;99.90
39079;DHT22;24829;49.208;12.080;2022-10-20T12:10:11;13.20;99.90
39079;DHT22;24829;49.208;12.080;2022-10-20T12:12:54;13.20;99.90
39079;DHT22;24829;49.208;12.080;2022-10-20T12:15:24;13.20;99.90
39079;DHT22;24829;49.208;12.080;2022-10-20T12:17:52;13.10;99.90
39079;DHT22;24829;49.208;12.080;2022-10-20T12:22:52;13.00;99.90
39079;DHT22;24829;49.208;12.080;2022-10-20T12:30:58;13.10;99.90
39079;DHT22;24829;49.208;12.080;2022-10-20T12:33:40;13.10;99.90
39079;DHT22;24829;49.208;12.080;2022-10-20T12:36:13;13.10;99.90
39079;DHT22;24829;49.208;12.080;2022-10-20T12:38:52;13.20;99.90
39079;DHT22;24829;49.208;12.080;2022-10-20T12:41:30;13.20;99.90
39079;DHT22;24829;49.208;12.080;2022-10-20T12:44:06;13.30;99.90
39079;DHT22;24829;49.208;12.080;2022-10-20T12:46:41;13.30;99.90
39079;DHT22;24829;49.208;12.080;2022-10-20T12:49:08;13.40;99.90
39079;DHT22;24829;49.208;12.080;2022-10-20T12:51:51;13.40;99.90
39079;DHT22;24829;49.208;12.080;2022-10-20T12:54:36;13.30;99.90
39079;DHT22;24829;49.208;12.080;2022-10-20T12:59:47;13.30;99.90
39079;DHT22;24829;49.208;12.080;2022-10-20T13:10:32;13.30;99.90
39079;DHT22;24829;49.208;12.080;2022-10-20T13:15:34;13.30;99.90
39079;DHT22;24829;49.208;12.080;2022-10-20T13:18:05;13.40;99.90
39079;DHT22;24829;49.208;12.080;2022-10-20T13:20:58;13.40;99.90
39079;DHT22;24829;49.208;12.080;2022-10-20T13:24:37;13.40;99.90
39079;DHT22;24829;49.208;12.080;2022-10-20T13:26:37;13.40;99.90
39079;DHT22;24829;49.208;12.080;2022-10-20T13:29:11;13.50;99.90
39079;DHT22;24829;49.208;12.080;2022-10-20T13:34:36;13.50;99.90
39079;DHT22;24829;49.208;12.080;2022-10-20T13:37:16;13.50;99.90
39079;DHT22;24829;49.208;12.080;2022-10-20T13:39:54;13.40;99.90
39079;DHT22;24829;49.208;12.080;2022-10-20T13:42:45;13.40;99.90
39079;DHT22;24829;49.208;12.080;2022-10-20T13:45:26;13.40;99.90
39079;DHT22;24829;49.208;12.080;2022-10-20T13:50:44;13.40;99.90
39079;DHT22;24829;49.208;12.080;2022-10-20T13:53:23;13.40;99.90
39079;DHT22;24829;49.208;12.080;2022-10-20T13:55:58;13.40;99.90
39079;DHT22;24829;49.208;12.080;2022-10-20T13:58:26;13.50;99.90
39079;DHT22;24829;49.208;12.080;2022-10-20T14:01:05;13.50;99.90
39079;DHT22;24829;49.208;12.080;2022-10-20T14:03:40;13.50;99.90
39079;DHT22;24829;49.208;12.080;2022-10-20T14:08:57;13.40;99.90
39079;DHT22;24829;49.208;12.080;2022-10-20T14:11:25;13.40;99.90
39079;DHT22;24829;49.208;12.080;2022-10-20T14:13:53;13.40;99.90
39079;DHT22;24829;49.208;12.080;2022-10-20T14:21:25;13.20;99.90
39079;DHT22;24829;49.208;12.080;2022-10-20T14:24:02;13.20;99.90
39079;DHT22;24829;49.208;12.080;2022-10-20T14:26:28;13.10;99.90
39079;DHT22;24829;49.208;12.080;2022-10-20T14:28:54;13.10;99.90
39079;DHT22;24829;49.208;12.080;2022-10-20T14:31:21;13.10;99.90
39079;DHT22;24829;49.208;12.080;2022-10-20T14:33:49;13.00;99.90
39079;DHT22;24829;49.208;12.080;2022-10-20T14:36:20;12.90;99.90
39079;DHT22;24829;49.208;12.080;2022-10-20T14:38:51;12.90;99.90
39079;DHT22;24829;49.208;12.080;2022-10-20T14:41:28;12.90;99.90
39079;DHT22;24829;49.208;12.080;2022-10-20T14:44:05;12.90;99.90
39079;DHT22;24829;49.208;12.080;2022-10-20T14:46:37;12.90;99.90
39079;DHT22;24829;49.208;12.080;2022-10-20T14:49:15;12.90;99.90
39079;DHT22;24829;49.208;12.080;2022-10-20T14:51:47;12.80;99.90
39079;DHT22;24829;49.208;12.080;2022-10-20T14:56:57;12.80;99.90
39079;DHT22;24829;49.208;12.080;2022-10-20T14:59:25;12.80;99.90
39079;DHT22;24829;49.208;12.080;2022-10-20T15:02:13;12.70;99.90
39079;DHT22;24829;49.208;12.080;2022-10-20T15:04:44;12.70;99.90
39079;DHT22;24829;49.208;12.080;2022-10-20T15:07:32;12.60;99.90
39079;DHT22;24829;49.208;12.080;2022-10-20T15:10:13;12.60;99.90
39079;DHT22;24829;49.208;12.080;2022-10-20T15:12:42;12.50;99.90
39079;DHT22;24829;49.208;12.080;2022-10-20T15:17:45;12.50;99.90
39079;DHT22;24829;49.208;12.080;2022-10-20T15:25:27;12.40;99.90
39079;DHT22;24829;49.208;12.080;2022-10-20T15:27:57;12.40;99.90
39079;DHT22;24829;49.208;12.080;2022-10-20T15:30:24;12.40;99.90
39079;DHT22;24829;49.208;12.080;2022-10-20T15:32:51;12.40;99.90
39079;DHT22;24829;49.208;12.080;2022-10-20T15:35:19;12.40;99.90
39079;DHT22;24829;49.208;12.080;2022-10-20T15:37:50;12.30;99.90
39079;DHT22;24829;49.208;12.080;2022-10-20T15:40:17;12.30;99.90
39079;DHT22;24829;49.208;12.080;2022-10-20T15:42:43;12.30;99.90
39079;DHT22;24829;49.208;12.080;2022-10-20T15:47:39;12.20;99.90
39079;DHT22;24829;49.208;12.080;2022-10-20T15:50:05;12.20;99.90
39079;DHT22;24829;49.208;12.080;2022-10-20T15:52:31;12.20;99.90
39079;DHT22;24829;49.208;12.080;2022-10-20T15:54:56;12.20;99.90
39079;DHT22;24829;49.208;12.080;2022-10-20T15:57:22;12.10;99.90
39079;DHT22;24829;49.208;12.080;2022-10-20T15:59:47;12.00;99.90
39079;DHT22;24829;49.208;12.080;2022-10-20T16:02:13;11.90;99.90
39079;DHT22;24829;49.208;12.080;2022-10-20T16:04:39;11.90;99.90
39079;DHT22;24829;49.208;12.080;2022-10-20T16:07:04;11.90;99.90
39079;DHT22;24829;49.208;12.080;2022-10-20T16:09:30;11.90;99.90
39079;DHT22;24829;49.208;12.080;2022-10-20T16:11:55;11.90;99.90
39079;DHT22;24829;49.208;12.080;2022-10-20T16:14:21;11.80;99.90
39079;DHT22;24829;49.208;12.080;2022-10-20T16:16:46;11.80;99.90
39079;DHT22;24829;49.208;12.080;2022-10-20T16:19:12;11.70;99.90
39079;DHT22;24829;49.208;12.080;2022-10-20T16:21:38;11.70;99.90
39079;DHT22;24829;49.208;12.080;2022-10-20T16:24:03;11.70;99.90
39079;DHT22;24829;49.208;12.080;2022-10-20T16:26:29;11.70;99.90
39079;DHT22;24829;49.208;12.080;2022-10-20T16:28:55;11.70;99.90
39079;DHT22;24829;49.208;12.080;2022-10-20T16:31:20;11.70;99.90
39079;DHT22;24829;49.208;12.080;2022-10-20T16:33:46;11.70;99.90
39079;DHT22;24829;49.208;12.080;2022-10-20T16:36:14;11.60;99.90
39079;DHT22;24829;49.208;12.080;2022-10-20T16:38:40;11.70;99.90
39079;DHT22;24829;49.208;12.080;2022-10-20T16:41:09;11.60;99.90
39079;DHT22;24829;49.208;12.080;2022-10-20T16:43:40;11.60;99.90
39079;DHT22;24829;49.208;12.080;2022-10-20T16:46:07;11.70;99.90
39079;DHT22;24829;49.208;12.080;2022-10-20T16:48:34;11.70;99.90
39079;DHT22;24829;49.208;12.080;2022-10-20T16:51:04;11.70;99.90
39079;DHT22;24829;49.208;12.080;2022-10-20T16:53:30;11.70;99.90
39079;DHT22;24829;49.208;12.080;2022-10-20T16:55:55;11.80;99.90
39079;DHT22;24829;49.208;12.080;2022-10-20T16:58:22;11.70;99.90
39079;DHT22;24829;49.208;12.080;2022-10-20T17:01:09;11.70;99.90
39079;DHT22;24829;49.208;12.080;2022-10-20T17:03:36;11.70;99.90
39079;DHT22;24829;49.208;12.080;2022-10-20T17:06:04;11.70;99.90
39079;DHT22;24829;49.208;12.080;2022-10-20T17:08:31;11.60;99.90
39079;DHT22;24829;49.208;12.080;2022-10-20T17:11:03;11.60;99.90
39079;DHT22;24829;49.208;12.080;2022-10-20T17:13:30;11.60;99.90
39079;DHT22;24829;49.208;12.080;2022-10-20T17:16:01;11.50;99.90
39079;DHT22;24829;49.208;12.080;2022-10-20T17:18:27;11.50;99.90
39079;DHT22;24829;49.208;12.080;2022-10-20T17:20:54;11.50;99.90
39079;DHT22;24829;49.208;12.080;2022-10-20T17:23:23;11.60;99.90
39079;DHT22;24829;49.208;12.080;2022-10-20T17:25:49;11.70;99.90
39079;DHT22;24829;49.208;12.080;2022-10-20T17:28:15;11.80;99.90
39079;DHT22;24829;49.208;12.080;2022-10-20T17:30:43;11.90;99.90
39079;DHT22;24829;49.208;12.080;2022-10-20T17:33:09;11.80;99.90
39079;DHT22;24829;49.208;12.080;2022-10-20T17:35:35;11.80;99.90
39079;DHT22;24829;49.208;12.080;2022-10-20T17:38:01;11.80;99.90
39079;DHT22;24829;49.208;12.080;2022-10-20T17:40:27;11.70;99.90